Bellefonte, Delaware
Current Conditions -  °F | °C
As of 9:51 AM on Sunday 21 Dec 2014 (Local Time) from KILG Reporting Station
Haze Haze  
Wind Chill: 29°   Ceiling: Unl
Heat Index: 34°   Visibility: 6mi
Dew Point: 24°   Wind: 6mph
Humidity: 67%   Direction: 300°WNW
Pressure: 30.36"   Gusts: NA
Location:  39.772°N, 75.4963°W
Report Text: KILG 211451Z 30005KT 6SM HZ FEW070 01/M04 A3036 RMK AO2 SLP282 T00111044 53008
Loading
Personal Weather Stations






























Interactive Weather Map New forecast layout! Learn more

10-Day Weather Forecast

Advertisements
Track Severe Weather on mobile